Main page
METAR-TAF:

METAR-TAF

Airports :

Gran Canaria, Spain

Gran Canaria Airport

latitude: 27-56N, longitude: 015-23W, elevation: 23 m

Current weather observation

The report was made 29 minutes ago, at 04:30 UTC
Wind 22 kt from the North
Temperature 23°C
Humidity 83%
Pressure 1011 hPa
Visibility 10 km or more
no clouds below 1500 m and no cumulonimbus

METAR: GCLP 240430Z 01022KT CAVOK 23/20 Q1011 NOSIG

Time: 05:59 (04:59 UTC)

Forecast

The report was made 2 hours and 59 minutes ago, at 02:00 UTC
Forecast valid from 24 at 03 UTC to 25 at 03 UTC
Wind 20 kt from the North/Northeast
Visibility 10 km or more
no clouds below 1500 m and no cumulonimbus
Temporary
from 24 at 03 UTC to 24 at 09 UTC
Wind 23 kt from the North/Northeast with gusts up to 33 kt

TAF: GCLP 240200Z 2403/2503 02020KT CAVOK TX30/2413Z TN26/2406Z TEMPO 2403/2409 02023G33KT

Weather observations and forecasts of more than 4000 airports (METAR and TAF reports).

The available stations are represented by yellow and red dots on the map.

Hover mouse over dot to see the name of the station.

Then click to see weather observations and forecasts.

To change the map : click on the green buttons with a black cross to zoom in, on the green button with a dash to zoom out, or on the green arrows for adjacent maps.


METAR-TAF: